Time;durP1;ratioP1;P1;durP2;ratioP2;P2;SDS_P1;SDS_P2;PMS_P1;PMS_P2;Temp;Humidity;BMP_temperature;BMP_pressure;BME280_temperature;BME280_humidity;BME280_pressure;Samples;Min_cycle;Max_cycle;Signal;HPM_P1;HPM_P2
2021/05/28 00:00:18;;;;;;;11.43;4.60;;;;;;;;;;4922171;29;20504;-59
2021/05/28 00:02:45;;;;;;;5.28;4.20;;;;;;;;;;4913106;29;20040;-59
2021/05/28 00:05:12;;;;;;;9.13;4.70;;;;;;;;;;4926375;29;20047;-59
2021/05/28 00:07:38;;;;;;;4.83;4.20;;;;;;;;;;4923680;29;20048;-59
2021/05/28 00:10:06;;;;;;;7.07;4.60;;;;;;;;;;4924484;29;20371;-57
2021/05/28 00:12:33;;;;;;;5.93;4.00;;;;;;;;;;4924056;29;20048;-59
2021/05/28 00:14:59;;;;;;;14.50;5.15;;;;;;;;;;4924469;29;20407;-57
2021/05/28 00:17:26;;;;;;;9.00;4.90;;;;;;;;;;4925372;29;20083;-58
2021/05/28 00:19:53;;;;;;;7.22;4.72;;;;;;;;;;4928190;29;20047;-59
2021/05/28 00:22:21;;;;;;;11.57;4.65;;;;;;;;;;4926082;29;20040;-58
2021/05/28 00:24:48;;;;;;;5.20;4.70;;;;;;;;;;4904789;29;20473;-60
2021/05/28 00:27:15;;;;;;;7.75;4.90;;;;;;;;;;4925001;29;20051;-58
2021/05/28 00:29:41;;;;;;;7.38;4.72;;;;;;;;;;4912728;29;20052;-59
2021/05/28 00:32:08;;;;;;;6.70;4.53;;;;;;;;;;4923123;29;20043;-58
2021/05/28 00:34:35;;;;;;;7.22;4.68;;;;;;;;;;4926762;29;20052;-58
2021/05/28 00:37:04;;;;;;;7.75;5.00;;;;;;;;;;4918501;29;20112;-58
2021/05/28 00:39:31;;;;;;;6.35;4.40;;;;;;;;;;4926518;29;20471;-58
2021/05/28 00:41:59;;;;;;;9.60;4.82;;;;;;;;;;4923562;29;20134;-58
2021/05/28 00:44:27;;;;;;;7.93;4.57;;;;;;;;;;4908508;29;20068;-59
2021/05/28 00:46:54;;;;;;;7.40;4.97;;;;;;;;;;4922989;29;20138;-57
2021/05/28 00:49:24;;;;;;;6.40;4.82;;;;;;;;;;4921007;29;20048;-58
2021/05/28 00:51:51;;;;;;;7.90;5.15;;;;;;;;;;4921569;29;20043;-59
2021/05/28 00:54:18;;;;;;;9.32;5.13;;;;;;;;;;4922115;29;20130;-55
2021/05/28 00:56:45;;;;;;;11.40;5.32;;;;;;;;;;4921975;29;20044;-59
2021/05/28 00:59:12;;;;;;;9.20;4.82;;;;;;;;;;4924258;29;20519;-59
2021/05/28 01:01:39;;;;;;;7.15;4.88;;;;;;;;;;4924172;29;20465;-59
2021/05/28 01:04:06;;;;;;;6.50;5.27;;;;;;;;;;4927001;29;20056;-58
2021/05/28 01:06:33;;;;;;;;;;;;;;;;;;4929243;29;20066;-59
2021/05/28 01:09:01;;;;;;;7.68;5.22;;;;;;;;;;4930330;29;20401;-59
2021/05/28 01:11:28;;;;;;;6.87;5.30;;;;;;;;;;4927324;29;20555;-56
2021/05/28 01:13:54;;;;;;;7.80;5.25;;;;;;;;;;4928625;29;20066;-58
2021/05/28 01:16:22;;;;;;;7.97;5.45;;;;;;;;;;4926458;29;20052;-58
2021/05/28 01:18:49;;;;;;;8.40;5.72;;;;;;;;;;4930017;29;20148;-59
2021/05/28 01:21:15;;;;;;;8.75;5.40;;;;;;;;;;4923866;29;20040;-58
2021/05/28 01:23:43;;;;;;;10.10;5.65;;;;;;;;;;4928883;29;20422;-58
2021/05/28 01:26:10;;;;;;;8.30;5.25;;;;;;;;;;4933331;29;20067;-58
2021/05/28 01:28:39;;;;;;;8.32;5.53;;;;;;;;;;4926635;29;20044;-57
2021/05/28 01:31:06;;;;;;;7.18;5.63;;;;;;;;;;4929928;29;20492;-59
2021/05/28 01:33:33;;;;;;;10.32;5.85;;;;;;;;;;4927654;29;20622;-59
2021/05/28 01:35:59;;;;;;;10.68;5.88;;;;;;;;;;4923944;29;20047;-59
2021/05/28 01:38:27;;;;;;;10.30;5.60;;;;;;;;;;4928621;29;20507;-59
2021/05/28 01:40:54;;;;;;;7.82;5.45;;;;;;;;;;4927456;29;20062;-58
2021/05/28 01:43:20;;;;;;;9.43;5.38;;;;;;;;;;4926436;29;20040;-59
2021/05/28 01:45:49;;;;;;;7.03;5.72;;;;;;;;;;4926254;29;20047;-58
2021/05/28 01:48:16;;;;;;;10.65;5.85;;;;;;;;;;4925247;29;20051;-59
2021/05/28 01:50:43;;;;;;;8.33;5.93;;;;;;;;;;4925458;29;20040;-59
2021/05/28 01:53:12;;;;;;;10.82;6.00;;;;;;;;;;4924265;29;20627;-59
2021/05/28 01:55:38;;;;;;;;;;;;;;;;;;4925482;29;20044;-59
2021/05/28 01:58:07;;;;;;;6.90;5.32;;;;;;;;;;4924427;29;19926;-58
2021/05/28 02:00:34;;;;;;;7.95;6.05;;;;;;;;;;4926234;29;20082;-58
2021/05/28 02:03:01;;;;;;;11.30;5.65;;;;;;;;;;4925885;29;20054;-58
2021/05/28 02:05:27;;;;;;;9.50;6.28;;;;;;;;;;4927266;29;20050;-58
2021/05/28 02:07:55;;;;;;;9.55;6.32;;;;;;;;;;4928430;29;20063;-59
2021/05/28 02:10:21;;;;;;;9.75;5.88;;;;;;;;;;4928862;29;20147;-58
2021/05/28 02:12:49;;;;;;;8.75;5.97;;;;;;;;;;4924151;29;20139;-58
2021/05/28 02:15:18;;;;;;;10.80;6.15;;;;;;;;;;4926641;29;20047;-59
2021/05/28 02:17:45;;;;;;;9.95;5.38;;;;;;;;;;4927070;29;20055;-59
2021/05/28 02:20:12;;;;;;;8.68;5.90;;;;;;;;;;4921346;29;20043;-59
2021/05/28 02:22:40;;;;;;;8.02;6.13;;;;;;;;;;4918152;29;20044;-58
2021/05/28 02:25:07;;;;;;;12.27;5.93;;;;;;;;;;4927530;29;20067;-60
2021/05/28 02:27:34;;;;;;;8.60;6.10;;;;;;;;;;4920698;29;20078;-60
2021/05/28 02:30:03;;;;;;;9.30;5.95;;;;;;;;;;4928138;29;20070;-59
2021/05/28 02:32:29;;;;;;;;;;;;;;;;;;4922155;29;20556;-59
2021/05/28 02:34:56;;;;;;;9.57;6.30;;;;;;;;;;4923384;29;20290;-58
2021/05/28 02:37:23;;;;;;;8.45;5.75;;;;;;;;;;4923683;29;20049;-57
2021/05/28 02:39:50;;;;;;;9.20;6.18;;;;;;;;;;4927758;29;20047;-59
2021/05/28 02:42:19;;;;;;;9.02;6.20;;;;;;;;;;4928894;29;20043;-59
2021/05/28 02:44:46;;;;;;;8.88;6.18;;;;;;;;;;4927928;29;20107;-58
2021/05/28 02:47:12;;;;;;;8.98;6.35;;;;;;;;;;4929636;29;20048;-59
2021/05/28 02:49:39;;;;;;;13.57;6.72;;;;;;;;;;4929234;29;20039;-58
2021/05/28 02:52:05;;;;;;;14.30;6.97;;;;;;;;;;4925372;29;20126;-54
2021/05/28 02:54:32;;;;;;;10.27;7.03;;;;;;;;;;4924865;29;20058;-56
2021/05/28 02:56:59;;;;;;;8.57;6.37;;;;;;;;;;4928485;29;20099;-57
2021/05/28 02:59:25;;;;;;;9.65;6.63;;;;;;;;;;4927956;29;20404;-59
2021/05/28 03:01:52;;;;;;;11.63;6.63;;;;;;;;;;4925750;29;20108;-54
2021/05/28 03:04:19;;;;;;;9.15;6.20;;;;;;;;;;4925357;29;20048;-57
2021/05/28 03:06:46;;;;;;;9.80;6.43;;;;;;;;;;4921811;29;20043;-58
2021/05/28 03:09:12;;;;;;;14.75;7.22;;;;;;;;;;4926868;29;20055;-57
2021/05/28 03:11:39;;;;;;;8.52;6.68;;;;;;;;;;4928221;29;20672;-58
2021/05/28 03:14:06;;;;;;;10.25;6.28;;;;;;;;;;4921935;29;20567;-56
2021/05/28 03:16:33;;;;;;;12.02;6.43;;;;;;;;;;4924840;29;20452;-58
2021/05/28 03:19:05;;;;;;;12.35;6.88;;;;;;;;;;4921491;29;20108;-58
2021/05/28 03:23:59;;;;;;;10.47;6.60;;;;;;;;;;4926762;29;20501;-56
2021/05/28 03:26:26;;;;;;;11.02;7.20;;;;;;;;;;4921702;29;20391;-58
2021/05/28 03:28:54;;;;;;;8.38;6.32;;;;;;;;;;4924895;29;20047;-57
2021/05/28 03:31:21;;;;;;;11.15;6.65;;;;;;;;;;4925846;29;20457;-59
2021/05/28 03:33:49;;;;;;;12.05;6.22;;;;;;;;;;4925992;29;20071;-59
2021/05/28 03:36:16;;;;;;;9.65;6.63;;;;;;;;;;4926082;29;20528;-59
2021/05/28 03:38:43;;;;;;;9.33;6.70;;;;;;;;;;4925121;29;20058;-58
2021/05/28 03:41:10;;;;;;;9.65;6.57;;;;;;;;;;4923237;29;20055;-56
2021/05/28 03:43:39;;;;;;;12.18;7.13;;;;;;;;;;4920554;29;20567;-59
2021/05/28 03:46:05;;;;;;;12.70;7.17;;;;;;;;;;4923086;29;20039;-59
2021/05/28 03:48:32;;;;;;;9.45;7.00;;;;;;;;;;4907466;29;20052;-57
2021/05/28 03:50:59;;;;;;;10.32;7.18;;;;;;;;;;4925412;29;20381;-57
2021/05/28 03:53:26;;;;;;;17.15;7.80;;;;;;;;;;4924520;29;20044;-59
2021/05/28 03:55:52;;;;;;;10.40;7.40;;;;;;;;;;4926517;29;20047;-58
2021/05/28 03:58:20;;;;;;;13.68;7.78;;;;;;;;;;4921510;29;20299;-58
2021/05/28 04:00:47;;;;;;;9.02;6.82;;;;;;;;;;4926065;29;20542;-59
2021/05/28 04:03:14;;;;;;;12.57;6.53;;;;;;;;;;4924702;29;20043;-59
2021/05/28 04:05:42;;;;;;;9.45;7.43;;;;;;;;;;4926184;29;20307;-59
2021/05/28 04:08:09;;;;;;;10.18;7.15;;;;;;;;;;4926794;29;20512;-59
2021/05/28 04:10:36;;;;;;;14.68;6.80;;;;;;;;;;4927455;29;20070;-55
2021/05/28 04:13:03;;;;;;;10.40;6.57;;;;;;;;;;4925937;29;20048;-59
2021/05/28 04:15:29;;;;;;;9.35;6.75;;;;;;;;;;4912630;29;20134;-56
2021/05/28 04:17:56;;;;;;;8.98;6.70;;;;;;;;;;4928519;29;20040;-59
2021/05/28 04:20:23;;;;;;;12.40;6.60;;;;;;;;;;4921308;29;20043;-57
2021/05/28 04:22:50;;;;;;;7.73;6.80;;;;;;;;;;4927137;29;20091;-58
2021/05/28 04:25:16;;;;;;;10.82;6.95;;;;;;;;;;4926265;29;20036;-59
2021/05/28 04:27:43;;;;;;;10.52;7.10;;;;;;;;;;4928222;29;20104;-58
2021/05/28 04:30:10;;;;;;;9.25;6.95;;;;;;;;;;4926611;29;20043;-58
2021/05/28 04:32:36;;;;;;;9.63;6.90;;;;;;;;;;4925539;29;20551;-59
2021/05/28 04:35:05;;;;;;;9.35;7.00;;;;;;;;;;4928021;29;20319;-58
2021/05/28 04:37:31;;;;;;;14.77;6.05;;;;;;;;;;4931183;29;20414;-59
2021/05/28 04:39:58;;;;;;;9.90;6.22;;;;;;;;;;4929078;29;20489;-60
2021/05/28 04:42:25;;;;;;;10.40;5.37;;;;;;;;;;4933350;29;20472;-58
2021/05/28 04:44:51;;;;;;;7.70;4.73;;;;;;;;;;4925960;29;20070;-60
2021/05/28 04:47:18;;;;;;;9.77;5.32;;;;;;;;;;4925560;29;20040;-58
2021/05/28 04:49:46;;;;;;;8.80;5.43;;;;;;;;;;4908374;29;20048;-57
2021/05/28 04:52:13;;;;;;;7.57;5.25;;;;;;;;;;4931423;29;20051;-59
2021/05/28 04:54:39;;;;;;;10.70;5.65;;;;;;;;;;4926577;29;20056;-58
2021/05/28 04:57:07;;;;;;;7.38;5.25;;;;;;;;;;4926999;29;20097;-59
2021/05/28 04:59:33;;;;;;;7.93;5.60;;;;;;;;;;4927886;29;20058;-58
2021/05/28 05:02:00;;;;;;;6.82;4.80;;;;;;;;;;4935482;29;20513;-59
2021/05/28 05:04:27;;;;;;;9.80;5.30;;;;;;;;;;4929737;29;20043;-57
2021/05/28 05:06:54;;;;;;;7.67;4.70;;;;;;;;;;4914616;29;20136;-58
2021/05/28 05:09:20;;;;;;;5.82;4.63;;;;;;;;;;4932644;29;20039;-57
2021/05/28 05:11:47;;;;;;;6.57;4.93;;;;;;;;;;4926347;29;20044;-59
2021/05/28 05:14:14;;;;;;;6.47;4.80;;;;;;;;;;4925159;29;20040;-58
2021/05/28 05:16:41;;;;;;;7.78;4.43;;;;;;;;;;4933604;29;20054;-59
2021/05/28 05:19:10;;;;;;;5.18;4.50;;;;;;;;;;4923295;29;20087;-60
2021/05/28 05:21:37;;;;;;;5.30;4.22;;;;;;;;;;4923974;29;20445;-59
2021/05/28 05:24:04;;;;;;;7.03;4.35;;;;;;;;;;4929036;29;20054;-59
2021/05/28 05:26:31;;;;;;;5.55;3.95;;;;;;;;;;4926573;29;20052;-59
2021/05/28 05:28:58;;;;;;;7.45;4.35;;;;;;;;;;4925617;29;20511;-59
2021/05/28 05:31:24;;;;;;;6.22;3.63;;;;;;;;;;4927428;29;20064;-56
2021/05/28 05:33:53;;;;;;;10.10;3.85;;;;;;;;;;4919649;29;20039;-59
2021/05/28 05:36:20;;;;;;;4.57;3.70;;;;;;;;;;4930473;29;20051;-59
2021/05/28 05:38:47;;;;;;;3.70;3.33;;;;;;;;;;4912218;29;20052;-56
2021/05/28 05:41:14;;;;;;;5.07;3.40;;;;;;;;;;4924967;29;20256;-59
2021/05/28 05:43:41;;;;;;;4.37;3.00;;;;;;;;;;4925615;29;20488;-59
2021/05/28 05:46:08;;;;;;;8.35;3.13;;;;;;;;;;4929397;29;20048;-59
2021/05/28 05:48:35;;;;;;;4.63;3.10;;;;;;;;;;4920335;29;20040;-59
2021/05/28 05:51:01;;;;;;;3.38;2.40;;;;;;;;;;4926030;29;20048;-59
2021/05/28 05:53:28;;;;;;;3.35;3.00;;;;;;;;;;4922159;29;20048;-58
2021/05/28 05:55:55;;;;;;;4.90;2.67;;;;;;;;;;4926974;29;20040;-59
2021/05/28 05:58:21;;;;;;;3.17;2.75;;;;;;;;;;4931750;29;20071;-59
2021/05/28 06:00:48;;;;;;;2.85;2.50;;;;;;;;;;4913365;29;20143;-58
2021/05/28 06:03:18;;;;;;;11.20;2.70;;;;;;;;;;4920013;29;20051;-59
2021/05/28 06:05:45;;;;;;;7.00;2.78;;;;;;;;;;4926402;29;20047;-60
2021/05/28 06:08:11;;;;;;;5.47;2.73;;;;;;;;;;4921211;29;20040;-60
2021/05/28 06:10:38;;;;;;;3.03;2.30;;;;;;;;;;4931205;29;20090;-59
2021/05/28 06:13:06;;;;;;;3.73;2.20;;;;;;;;;;4926595;29;20096;-59
2021/05/28 06:15:33;;;;;;;3.92;2.60;;;;;;;;;;4927936;29;20369;-59
2021/05/28 06:18:05;;;;;;;3.53;2.33;;;;;;;;;;4921269;29;20043;-59
2021/05/28 06:20:32;;;;;;;2.95;2.42;;;;;;;;;;4923881;29;20042;-58
2021/05/28 06:22:59;;;;;;;4.18;2.28;;;;;;;;;;4925273;29;20103;-60
2021/05/28 06:25:27;;;;;;;2.40;2.00;;;;;;;;;;4923839;29;20412;-59
2021/05/28 06:27:54;;;;;;;4.00;2.08;;;;;;;;;;4923628;29;20056;-60
2021/05/28 06:30:21;;;;;;;5.15;2.08;;;;;;;;;;4927166;29;20050;-60
2021/05/28 06:32:48;;;;;;;3.28;2.10;;;;;;;;;;4921423;29;20040;-59
2021/05/28 06:35:14;;;;;;;4.70;1.85;;;;;;;;;;4924044;29;20050;-60
2021/05/28 06:37:41;;;;;;;3.07;1.80;;;;;;;;;;4928170;29;20044;-60
2021/05/28 06:40:10;;;;;;;6.45;1.90;;;;;;;;;;4928669;29;20102;-60
2021/05/28 06:42:37;;;;;;;2.35;2.00;;;;;;;;;;4910837;29;20043;-59
2021/05/28 06:45:05;;;;;;;3.08;1.80;;;;;;;;;;4920157;29;20456;-60
2021/05/28 06:47:32;;;;;;;3.35;2.13;;;;;;;;;;4927861;29;20040;-60
2021/05/28 06:49:59;;;;;;;6.80;2.30;;;;;;;;;;4922231;29;20055;-60
2021/05/28 06:52:25;;;;;;;3.38;1.90;;;;;;;;;;4927852;29;20300;-58
2021/05/28 06:54:53;;;;;;;2.55;1.90;;;;;;;;;;4925528;29;20603;-59
2021/05/28 06:57:21;;;;;;;2.95;1.83;;;;;;;;;;4926564;29;20205;-59
2021/05/28 06:59:48;;;;;;;5.03;1.80;;;;;;;;;;4927695;29;20169;-60
2021/05/28 07:02:15;;;;;;;4.53;1.80;;;;;;;;;;4930368;29;20132;-60
2021/05/28 07:04:42;;;;;;;2.95;1.88;;;;;;;;;;4906255;29;20472;-59
2021/05/28 07:07:08;;;;;;;2.97;2.17;;;;;;;;;;4927289;29;20059;-60
2021/05/28 07:09:35;;;;;;;4.43;1.80;;;;;;;;;;4922187;29;20048;-58
2021/05/28 07:12:02;;;;;;;3.78;1.70;;;;;;;;;;4923997;29;20315;-60
2021/05/28 07:14:29;;;;;;;6.40;2.25;;;;;;;;;;4927303;29;20095;-59
2021/05/28 07:16:56;;;;;;;4.40;1.90;;;;;;;;;;4927587;29;20488;-60
2021/05/28 07:19:22;;;;;;;2.30;1.90;;;;;;;;;;4924657;29;20082;-60
2021/05/28 07:21:49;;;;;;;5.23;2.00;;;;;;;;;;4923163;29;20070;-60
2021/05/28 07:24:16;;;;;;;2.38;2.05;;;;;;;;;;4928649;29;20050;-60
2021/05/28 07:26:43;;;;;;;2.20;1.65;;;;;;;;;;4924305;29;20040;-60
2021/05/28 07:29:11;;;;;;;2.13;1.80;;;;;;;;;;4926969;29;20048;-60
2021/05/28 07:31:39;;;;;;;;;;;;;;;;;;4928957;29;20692;-60
2021/05/28 07:34:06;;;;;;;2.13;1.52;;;;;;;;;;4926489;29;19934;-60
2021/05/28 07:36:32;;;;;;;10.50;2.22;;;;;;;;;;4926298;29;20048;-60
2021/05/28 07:38:59;;;;;;;4.63;1.90;;;;;;;;;;4925710;29;20039;-60
2021/05/28 07:41:27;;;;;;;2.95;1.98;;;;;;;;;;4927199;29;20126;-60
2021/05/28 07:43:58;;;;;;;2.30;1.80;;;;;;;;;;4925612;29;20102;-60
2021/05/28 07:46:25;;;;;;;1.90;1.70;;;;;;;;;;4927171;29;20082;-60
2021/05/28 07:48:52;;;;;;;4.53;2.00;;;;;;;;;;4922450;29;20052;-60
2021/05/28 07:51:19;;;;;;;8.23;1.83;;;;;;;;;;4924010;29;20445;-60
2021/05/28 07:53:46;;;;;;;2.13;1.50;;;;;;;;;;4920776;29;20044;-60
2021/05/28 07:56:13;;;;;;;5.68;1.85;;;;;;;;;;4928933;29;20480;-60
2021/05/28 07:58:40;;;;;;;3.10;2.20;;;;;;;;;;4917526;29;20409;-62
2021/05/28 08:01:08;;;;;;;2.03;1.80;;;;;;;;;;4922103;29;20055;-60
2021/05/28 08:03:35;;;;;;;1.97;1.80;;;;;;;;;;4928598;29;20107;-59
2021/05/28 08:06:01;;;;;;;5.07;1.83;;;;;;;;;;4920656;29;20848;-60
2021/05/28 08:08:28;;;;;;;2.33;1.88;;;;;;;;;;4923277;29;20048;-60
2021/05/28 08:10:55;;;;;;;2.10;1.83;;;;;;;;;;4913693;29;20370;-60
2021/05/28 08:13:21;;;;;;;2.47;1.85;;;;;;;;;;4918040;29;20430;-61
2021/05/28 08:15:49;;;;;;;2.47;1.80;;;;;;;;;;4919488;29;20044;-60
2021/05/28 08:18:15;;;;;;;3.88;2.13;;;;;;;;;;4926294;29;20051;-60
2021/05/28 08:20:42;;;;;;;2.40;2.10;;;;;;;;;;4924977;29;20058;-60
2021/05/28 08:23:09;;;;;;;1.73;1.63;;;;;;;;;;4926594;29;20452;-60
2021/05/28 08:25:36;;;;;;;3.38;2.15;;;;;;;;;;4924167;29;20139;-61
2021/05/28 08:28:02;;;;;;;2.83;1.95;;;;;;;;;;4921562;29;20076;-60
2021/05/28 08:30:29;;;;;;;6.22;1.98;;;;;;;;;;4923005;29;20493;-61
2021/05/28 08:32:56;;;;;;;5.53;1.73;;;;;;;;;;4925666;29;20052;-60
2021/05/28 08:35:23;;;;;;;4.30;1.75;;;;;;;;;;4922935;29;20291;-60
2021/05/28 08:37:50;;;;;;;8.88;2.30;;;;;;;;;;4923204;29;20067;-60
2021/05/28 08:40:18;;;;;;;1.53;1.43;;;;;;;;;;4924146;29;20047;-60
2021/05/28 08:42:45;;;;;;;2.10;1.52;;;;;;;;;;4920610;29;20044;-60
2021/05/28 08:45:13;;;;;;;3.33;1.90;;;;;;;;;;4923965;29;20055;-60
2021/05/28 08:47:43;;;;;;;3.45;1.70;;;;;;;;;;4929040;29;20568;-60
2021/05/28 08:50:11;;;;;;;1.85;1.70;;;;;;;;;;4924264;29;20051;-61
2021/05/28 08:52:38;;;;;;;5.00;1.83;;;;;;;;;;4922182;29;20044;-60
2021/05/28 08:55:06;;;;;;;;;;;;;;;;;;4922957;29;20036;-60
2021/05/28 08:57:32;;;;;;;2.85;1.75;;;;;;;;;;4921898;29;20371;-60
2021/05/28 08:59:59;;;;;;;2.67;1.80;;;;;;;;;;4926940;29;20127;-61
2021/05/28 09:02:27;;;;;;;7.20;1.75;;;;;;;;;;4919002;29;20123;-60
2021/05/28 09:05:10;;;;;;;3.78;1.85;;;;;;;;;;4923274;29;20036;-60
2021/05/28 09:07:38;;;;;;;3.83;1.73;;;;;;;;;;4923357;29;20111;-61
2021/05/28 09:10:24;;;;;;;2.03;1.70;;;;;;;;;;4920297;29;20517;-60
2021/05/28 09:12:51;;;;;;;1.60;1.50;;;;;;;;;;4924540;29;20098;-60
2021/05/28 09:15:19;;;;;;;1.70;1.60;;;;;;;;;;4921774;29;20048;-60
2021/05/28 09:17:46;;;;;;;2.53;1.70;;;;;;;;;;4926258;29;20044;-60
2021/05/28 09:20:13;;;;;;;;;;;;;;;;;;4928819;29;20572;-61
2021/05/28 09:22:39;;;;;;;4.07;1.70;;;;;;;;;;4932479;29;19927;-60
2021/05/28 09:25:07;;;;;;;3.10;2.10;;;;;;;;;;4928174;29;20036;-60
2021/05/28 09:27:36;;;;;;;4.07;1.50;;;;;;;;;;4913221;29;20070;-60
2021/05/28 09:30:03;;;;;;;2.22;1.52;;;;;;;;;;4928127;29;20535;-60
2021/05/28 09:32:30;;;;;;;3.03;1.45;;;;;;;;;;4926578;29;20043;-60
2021/05/28 09:34:57;;;;;;;2.78;1.90;;;;;;;;;;4923680;29;20048;-60
2021/05/28 09:37:41;;;;;;;1.50;1.40;;;;;;;;;;4930808;29;20083;-60
2021/05/28 09:40:13;;;;;;;4.93;1.45;;;;;;;;;;4929754;29;20296;-60
2021/05/28 09:42:49;;;;;;;2.42;1.25;;;;;;;;;;4926817;29;20094;-61
2021/05/28 09:45:32;;;;;;;6.25;1.70;;;;;;;;;;4924405;29;20044;-60
2021/05/28 09:48:00;;;;;;;2.60;1.63;;;;;;;;;;4926310;29;20086;-60
2021/05/28 09:50:33;;;;;;;2.55;1.58;;;;;;;;;;4919671;29;20083;-60
2021/05/28 09:53:03;;;;;;;1.75;1.65;;;;;;;;;;4928867;29;20051;-60
2021/05/28 09:55:31;;;;;;;5.07;1.42;;;;;;;;;;4927430;29;20099;-60
2021/05/28 09:57:58;;;;;;;1.80;1.40;;;;;;;;;;4933051;29;20051;-60
2021/05/28 10:00:32;;;;;;;3.05;1.73;;;;;;;;;;4922132;29;20081;-60
2021/05/28 10:03:14;;;;;;;2.85;1.70;;;;;;;;;;4924383;29;20048;-60
2021/05/28 10:05:42;;;;;;;7.25;2.00;;;;;;;;;;4924796;29;20444;-59
2021/05/28 10:08:12;;;;;;;4.38;2.00;;;;;;;;;;4926707;29;20496;-60
2021/05/28 10:10:39;;;;;;;5.30;1.48;;;;;;;;;;4920986;29;20048;-60
2021/05/28 10:13:11;;;;;;;7.05;1.80;;;;;;;;;;4926744;29;20050;-60
2021/05/28 10:15:45;;;;;;;2.22;1.65;;;;;;;;;;4922908;29;20523;-60
2021/05/28 10:18:13;;;;;;;2.40;1.70;;;;;;;;;;4910356;29;20044;-60
2021/05/28 10:20:41;;;;;;;4.00;1.70;;;;;;;;;;4924240;29;20130;-61
2021/05/28 10:23:12;;;;;;;5.57;2.10;;;;;;;;;;4929350;29;20116;-61
2021/05/28 10:25:39;;;;;;;1.60;1.40;;;;;;;;;;4927623;29;20051;-60
2021/05/28 10:28:14;;;;;;;2.58;1.90;;;;;;;;;;4926539;29;20048;-60
2021/05/28 10:30:42;;;;;;;2.45;1.92;;;;;;;;;;4925229;29;20043;-60
2021/05/28 10:33:25;;;;;;;2.33;1.60;;;;;;;;;;4923025;29;20604;-60
2021/05/28 10:35:56;;;;;;;2.95;1.60;;;;;;;;;;4927839;29;20043;-60
2021/05/28 10:38:29;;;;;;;3.10;1.92;;;;;;;;;;4926608;29;20047;-60
2021/05/28 10:40:59;;;;;;;7.18;2.50;;;;;;;;;;4921254;29;20052;-61
2021/05/28 10:43:27;;;;;;;3.78;1.90;;;;;;;;;;4924879;29;20536;-60
2021/05/28 10:45:53;;;;;;;4.28;1.58;;;;;;;;;;4912524;29;20048;-60
2021/05/28 10:48:46;;;;;;;6.60;1.52;;;;;;;;;;4925146;29;20044;-60
2021/05/28 10:51:16;;;;;;;7.47;1.80;;;;;;;;;;4926809;29;20059;-60
2021/05/28 10:53:53;;;;;;;6.38;1.90;;;;;;;;;;4921447;29;20130;-60
2021/05/28 10:56:26;;;;;;;2.78;1.70;;;;;;;;;;4919992;29;20048;-60
2021/05/28 10:58:54;;;;;;;1.50;1.33;;;;;;;;;;4928906;29;20808;-60
2021/05/28 11:01:20;;;;;;;;;;;;;;;;;;4930772;29;20047;-61
2021/05/28 11:03:47;;;;;;;2.25;1.55;;;;;;;;;;4930045;29;19927;-60
2021/05/28 11:06:14;;;;;;;2.37;1.60;;;;;;;;;;4922899;29;20044;-59
2021/05/28 11:08:44;;;;;;;1.52;1.42;;;;;;;;;;4921991;29;20048;-60
2021/05/28 11:11:30;;;;;;;4.95;1.52;;;;;;;;;;4928387;29;20055;-59
2021/05/28 11:13:58;;;;;;;1.60;1.50;;;;;;;;;;4925898;29;20062;-60
2021/05/28 11:16:25;;;;;;;2.47;1.48;;;;;;;;;;4915210;29;20144;-60
2021/05/28 11:18:52;;;;;;;4.18;1.40;;;;;;;;;;4928421;29;20070;-60
2021/05/28 11:21:21;;;;;;;2.20;1.40;;;;;;;;;;4926590;29;20050;-60
2021/05/28 11:23:53;;;;;;;2.38;1.73;;;;;;;;;;4927298;29;20083;-60
2021/05/28 11:26:26;;;;;;;6.53;1.85;;;;;;;;;;4924622;29;20047;-60
2021/05/28 11:28:55;;;;;;;2.70;1.58;;;;;;;;;;4923282;29;20051;-60
2021/05/28 11:31:23;;;;;;;6.40;1.80;;;;;;;;;;4922912;29;20040;-60
2021/05/28 11:33:54;;;;;;;4.00;1.90;;;;;;;;;;4922943;29;20496;-59
2021/05/28 11:36:27;;;;;;;5.65;2.30;;;;;;;;;;4930212;29;20056;-59
2021/05/28 11:38:58;;;;;;;3.70;1.80;;;;;;;;;;4924931;29;20103;-60
2021/05/28 11:41:45;;;;;;;6.07;1.85;;;;;;;;;;4923395;29;20608;-59
2021/05/28 11:44:13;;;;;;;1.95;1.40;;;;;;;;;;4921670;29;20126;-59
2021/05/28 11:46:41;;;;;;;1.30;1.20;;;;;;;;;;4921209;29;20110;-59
2021/05/28 11:49:08;;;;;;;2.75;1.60;;;;;;;;;;4926503;29;20111;-60
2021/05/28 11:51:35;;;;;;;3.45;1.67;;;;;;;;;;4923135;29;20085;-60
2021/05/28 11:54:18;;;;;;;2.70;1.65;;;;;;;;;;4926547;29;20130;-60
2021/05/28 11:56:51;;;;;;;2.88;1.60;;;;;;;;;;4928216;29;20099;-60
2021/05/28 11:59:17;;;;;;;3.85;1.58;;;;;;;;;;4924058;29;20044;-60
2021/05/28 12:01:44;;;;;;;4.65;1.90;;;;;;;;;;4920675;29;20100;-60
2021/05/28 12:04:15;;;;;;;3.28;1.48;;;;;;;;;;4926529;29;20048;-60
2021/05/28 12:06:41;;;;;;;2.83;1.73;;;;;;;;;;4926341;29;20077;-60
2021/05/28 12:09:08;;;;;;;3.67;1.47;;;;;;;;;;4927134;29;20042;-60
2021/05/28 12:11:35;;;;;;;2.10;1.90;;;;;;;;;;4921895;29;20048;-59
2021/05/28 12:14:01;;;;;;;5.93;1.77;;;;;;;;;;4923682;29;20053;-59
2021/05/28 12:16:29;;;;;;;6.50;1.63;;;;;;;;;;4909995;29;20055;-59
2021/05/28 12:18:56;;;;;;;4.88;2.13;;;;;;;;;;4928691;29;20091;-59
2021/05/28 12:21:23;;;;;;;2.05;1.67;;;;;;;;;;4925243;29;20102;-59
2021/05/28 12:23:50;;;;;;;;;;;;;;;;;;4923536;29;20050;-59
2021/05/28 12:26:21;;;;;;;4.75;1.73;;;;;;;;;;4920975;29;19958;-59
2021/05/28 12:28:49;;;;;;;3.65;2.15;;;;;;;;;;4925482;29;20193;-59
2021/05/28 12:31:16;;;;;;;4.55;1.60;;;;;;;;;;4927637;29;20043;-60
2021/05/28 12:33:45;;;;;;;2.03;1.65;;;;;;;;;;4929332;29;20072;-59
2021/05/28 12:36:12;;;;;;;2.53;1.42;;;;;;;;;;4920732;29;20068;-59
2021/05/28 12:38:40;;;;;;;3.42;1.70;;;;;;;;;;4924953;29;20127;-60
2021/05/28 12:41:11;;;;;;;2.25;1.65;;;;;;;;;;4925453;29;20528;-59
2021/05/28 12:43:42;;;;;;;3.83;1.98;;;;;;;;;;4926819;29;20411;-59
2021/05/28 12:46:19;;;;;;;3.85;2.10;;;;;;;;;;4923332;29;20111;-59
2021/05/28 12:48:47;;;;;;;4.03;1.65;;;;;;;;;;4924747;29;20576;-59
2021/05/28 12:51:15;;;;;;;3.25;2.00;;;;;;;;;;4920888;29;20400;-59
2021/05/28 12:53:43;;;;;;;2.40;2.00;;;;;;;;;;4926492;29;20561;-59
2021/05/28 12:56:18;;;;;;;3.70;2.10;;;;;;;;;;4926924;29;20115;-59
2021/05/28 12:58:46;;;;;;;3.90;2.10;;;;;;;;;;4927997;29;20112;-60
2021/05/28 13:01:17;;;;;;;2.63;1.83;;;;;;;;;;4926082;29;20549;-59
2021/05/28 13:03:45;;;;;;;2.90;1.92;;;;;;;;;;4926951;29;20044;-60
2021/05/28 13:06:25;;;;;;;6.25;2.05;;;;;;;;;;4928627;29;20504;-59
2021/05/28 13:08:52;;;;;;;3.17;1.60;;;;;;;;;;4929088;29;20040;-59
2021/05/28 13:11:20;;;;;;;4.07;1.92;;;;;;;;;;4926689;29;20058;-59
2021/05/28 13:13:53;;;;;;;3.97;2.08;;;;;;;;;;4930530;29;20706;-59
2021/05/28 13:16:30;;;;;;;4.22;2.00;;;;;;;;;;4928822;29;20753;-59
2021/05/28 13:19:06;;;;;;;2.22;1.88;;;;;;;;;;4923200;29;20079;-60
2021/05/28 13:21:33;;;;;;;4.40;1.90;;;;;;;;;;4924087;29;20059;-59
2021/05/28 13:24:00;;;;;;;3.78;1.77;;;;;;;;;;4926620;29;20040;-58
2021/05/28 13:26:29;;;;;;;2.13;1.92;;;;;;;;;;4924757;29;20103;-59
2021/05/28 13:28:55;;;;;;;2.30;1.90;;;;;;;;;;4922801;29;20404;-59
2021/05/28 13:31:23;;;;;;;2.25;1.90;;;;;;;;;;4929096;29;20078;-59
2021/05/28 13:33:49;;;;;;;2.75;1.88;;;;;;;;;;4923731;29;20047;-59
2021/05/28 13:36:17;;;;;;;2.15;1.92;;;;;;;;;;4926561;29;20036;-59
2021/05/28 13:38:49;;;;;;;2.72;1.98;;;;;;;;;;4927188;29;20492;-59
2021/05/28 13:41:23;;;;;;;3.05;2.05;;;;;;;;;;4925861;29;20044;-59
2021/05/28 13:43:50;;;;;;;2.35;1.90;;;;;;;;;;4933108;29;20095;-59
2021/05/28 13:46:17;;;;;;;2.27;2.00;;;;;;;;;;4930439;29;20044;-59
2021/05/28 13:48:44;;;;;;;2.08;1.77;;;;;;;;;;4930971;29;20555;-59
2021/05/28 13:51:12;;;;;;;2.72;2.05;;;;;;;;;;4923697;29;20047;-59
2021/05/28 13:53:38;;;;;;;;;;;;;;;;;;4927246;29;20484;-59
2021/05/28 13:56:05;;;;;;;2.72;2.03;;;;;;;;;;4924405;29;19923;-59
2021/05/28 13:58:32;;;;;;;6.78;2.00;;;;;;;;;;4925069;29;20497;-58
2021/05/28 14:00:59;;;;;;;3.30;2.10;;;;;;;;;;4926462;29;20805;-59
2021/05/28 14:03:26;;;;;;;3.83;2.10;;;;;;;;;;4925556;29;20122;-59
2021/05/28 14:05:53;;;;;;;5.28;2.10;;;;;;;;;;4928473;29;20452;-59
2021/05/28 14:08:20;;;;;;;2.25;2.05;;;;;;;;;;4925754;29;20055;-59
2021/05/28 14:10:48;;;;;;;3.30;2.30;;;;;;;;;;4925881;29;20063;-59
2021/05/28 14:13:15;;;;;;;5.38;2.30;;;;;;;;;;4930430;29;20043;-59
2021/05/28 14:15:42;;;;;;;2.33;1.85;;;;;;;;;;4927916;29;20420;-59
2021/05/28 14:18:09;;;;;;;5.47;1.83;;;;;;;;;;4928996;29;20571;-59
2021/05/28 14:20:38;;;;;;;2.70;1.98;;;;;;;;;;4927042;29;20044;-59
2021/05/28 14:23:06;;;;;;;2.10;1.90;;;;;;;;;;4924299;29;20153;-59
2021/05/28 14:25:34;;;;;;;2.72;1.90;;;;;;;;;;4930231;29;20040;-57
2021/05/28 14:28:02;;;;;;;3.05;2.22;;;;;;;;;;4922723;29;20420;-59
2021/05/28 14:30:30;;;;;;;3.30;2.10;;;;;;;;;;4928302;29;20176;-59
2021/05/28 14:32:58;;;;;;;1.88;1.73;;;;;;;;;;4921529;29;20076;-58
2021/05/28 14:35:24;;;;;;;;;;;;;;;;;;4928973;29;20072;-59
2021/05/28 14:37:51;;;;;;;2.72;1.80;;;;;;;;;;4930036;29;19927;-57
2021/05/28 14:40:19;;;;;;;2.67;2.20;;;;;;;;;;4926065;29;20054;-58
2021/05/28 14:42:46;;;;;;;4.18;2.10;;;;;;;;;;4920672;29;20593;-59
2021/05/28 14:45:14;;;;;;;2.57;1.87;;;;;;;;;;4926805;29;20054;-59
2021/05/28 14:47:40;;;;;;;;;;;;;;;;;;4922437;29;20099;-57
2021/05/28 14:50:09;;;;;;;2.78;2.25;;;;;;;;;;4924532;29;19942;-59
2021/05/28 14:52:36;;;;;;;5.10;2.53;;;;;;;;;;4927631;29;20054;-58